Time;durP1;ratioP1;P1;durP2;ratioP2;P2;SDS_P1;SDS_P2;PMS_P1;PMS_P2;Temp;Humidity;BMP_temperature;BMP_pressure;BME280_temperature;BME280_humidity;BME280_pressure;Samples;Min_cycle;Max_cycle;Signal;HPM_P1;HPM_P2
2021/06/18 00:00:09;;;;;;;6.33;3.90;;;21.60;99.70;;;;;;5037339;28;20495;-63
2021/06/18 00:02:37;;;;;;;7.07;3.83;;;21.50;99.70;;;;;;5033679;28;20479;-62
2021/06/18 00:05:04;;;;;;;4.53;3.60;;;21.50;99.70;;;;;;5037193;28;20479;-64
2021/06/18 00:07:32;;;;;;;6.20;3.67;;;21.40;99.70;;;;;;5029312;28;20456;-64
2021/06/18 00:09:59;;;;;;;6.20;3.53;;;21.30;99.70;;;;;;5026224;28;20621;-63
2021/06/18 00:12:26;;;;;;;8.13;4.10;;;21.20;99.70;;;;;;5037978;28;20483;-64
2021/06/18 00:14:53;;;;;;;5.90;3.73;;;21.10;99.70;;;;;;5037313;28;20459;-60
2021/06/18 00:17:19;;;;;;;8.60;4.13;;;21.10;99.70;;;;;;5024612;28;20475;-63
2021/06/18 00:19:46;;;;;;;7.73;3.90;;;20.90;99.70;;;;;;5035883;28;20484;-63
2021/06/18 00:22:13;;;;;;;5.67;3.70;;;20.90;99.70;;;;;;5037568;28;20871;-62
2021/06/18 00:24:41;;;;;;;8.27;4.20;;;20.90;99.70;;;;;;5036729;28;20457;-65
2021/06/18 00:27:08;;;;;;;7.87;4.00;;;20.90;99.70;;;;;;5037307;28;20445;-65
2021/06/18 00:29:34;;;;;;;7.67;3.77;;;20.80;99.70;;;;;;5032071;28;20453;-64
2021/06/18 00:32:01;;;;;;;7.90;3.67;;;20.90;99.70;;;;;;5018578;28;20473;-64
2021/06/18 00:34:28;;;;;;;7.03;4.00;;;20.90;99.70;;;;;;5026439;28;20477;-64
2021/06/18 00:36:54;;;;;;;9.87;4.23;;;20.80;99.70;;;;;;5022173;28;20451;-63
2021/06/18 00:39:21;;;;;;;6.50;4.03;;;20.80;99.70;;;;;;5024691;28;20456;-63
2021/06/18 00:41:50;;;;;;;6.83;3.87;;;20.80;99.70;;;;;;5016454;28;20461;-64
2021/06/18 00:44:16;;;;;;;6.67;3.83;;;20.70;99.70;;;;;;5022962;28;20450;-63
2021/06/18 00:46:45;;;;;;;7.30;3.83;;;20.70;99.70;;;;;;5027715;28;20520;-61
2021/06/18 00:49:14;;;;;;;8.13;4.17;;;20.90;99.70;;;;;;5034797;28;20453;-64
2021/06/18 00:51:41;;;;;;;5.53;3.67;;;20.90;99.70;;;;;;5036608;28;20473;-63
2021/06/18 00:54:10;;;;;;;7.70;4.23;;;20.70;99.70;;;;;;5025065;28;20986;-61
2021/06/18 00:56:38;;;;;;;6.90;3.83;;;20.60;99.70;;;;;;5022328;28;20448;-63
2021/06/18 00:59:06;;;;;;;7.07;4.20;;;20.60;99.70;;;;;;5027319;28;20508;-63
2021/06/18 01:01:33;;;;;;;9.83;4.00;;;20.60;99.70;;;;;;5015925;28;20477;-63
2021/06/18 01:03:59;;;;;;;7.10;4.30;;;20.50;99.70;;;;;;5035145;28;20809;-63
2021/06/18 01:06:35;;;;;;;7.27;3.80;;;20.60;99.70;;;;;;5035709;28;20461;-64
2021/06/18 01:09:06;;;;;;;8.70;4.60;;;20.60;99.70;;;;;;5019820;28;20445;-63
2021/06/18 01:11:38;;;;;;;8.07;4.17;;;20.50;99.70;;;;;;5033848;28;20444;-63
2021/06/18 01:14:14;;;;;;;6.50;3.87;;;20.30;99.70;;;;;;5022021;28;20461;-63
2021/06/18 01:16:45;;;;;;;9.40;4.53;;;20.20;99.70;;;;;;5034062;28;20944;-63
2021/06/18 01:19:21;;;;;;;9.57;4.43;;;20.20;99.70;;;;;;5033939;28;20528;-64
2021/06/18 01:21:53;;;;;;;8.00;4.17;;;20.10;99.70;;;;;;5033468;28;20457;-64
2021/06/18 01:24:35;;;;;;;7.00;4.20;;;20.10;99.70;;;;;;5015933;28;20942;-61
2021/06/18 01:27:15;;;;;;;9.43;4.33;;;20.10;99.70;;;;;;5029047;28;20444;-63
2021/06/18 01:29:47;;;;;;;6.67;4.20;;;20.10;99.70;;;;;;5029067;28;20527;-62
2021/06/18 01:32:19;;;;;;;10.47;4.77;;;20.00;99.70;;;;;;5034028;28;20468;-63
2021/06/18 01:34:47;;;;;;;7.37;4.20;;;20.00;99.70;;;;;;5034106;28;20495;-62
2021/06/18 01:37:17;;;;;;;8.53;4.73;;;19.90;99.70;;;;;;5027825;28;20441;-63
2021/06/18 01:39:47;;;;;;;8.40;4.23;;;19.90;99.70;;;;;;5027505;28;20449;-60
2021/06/18 01:42:16;;;;;;;7.63;4.47;;;19.80;99.70;;;;;;5015097;28;20466;-62
2021/06/18 01:44:44;;;;;;;8.30;4.63;;;19.80;99.70;;;;;;5015437;28;20446;-62
2021/06/18 01:47:14;;;;;;;10.43;4.50;;;19.90;99.70;;;;;;5030800;28;20442;-64
2021/06/18 01:49:42;;;;;;;7.70;4.73;;;20.10;99.70;;;;;;5027036;28;20449;-64
2021/06/18 01:52:12;;;;;;;8.33;4.53;;;20.10;99.70;;;;;;5016820;28;20595;-64
2021/06/18 01:54:41;;;;;;;9.03;4.80;;;20.20;99.70;;;;;;5020609;28;20453;-63
2021/06/18 01:57:11;;;;;;;9.10;4.80;;;20.10;99.70;;;;;;5036589;28;20453;-63
2021/06/18 01:59:38;;;;;;;8.30;4.40;;;20.20;99.70;;;;;;5022741;28;20445;-66
2021/06/18 02:02:08;;;;;;;8.50;4.47;;;20.10;99.70;;;;;;5017919;28;20470;-66
2021/06/18 02:04:39;;;;;;;7.80;4.70;;;20.00;99.70;;;;;;5016601;28;20464;-66
2021/06/18 02:07:06;;;;;;;9.27;4.50;;;20.00;99.70;;;;;;5016233;28;20469;-65
2021/06/18 02:09:36;;;;;;;7.50;4.27;;;20.00;99.70;;;;;;5028145;28;20460;-65
2021/06/18 02:12:03;;;;;;;8.73;4.70;;;19.80;99.70;;;;;;5016140;28;20488;-66
2021/06/18 02:14:32;;;;;;;8.57;4.43;;;19.70;99.70;;;;;;5016346;28;20468;-66
2021/06/18 02:17:03;;;;;;;8.63;4.70;;;19.60;99.70;;;;;;5034584;28;20452;-62
2021/06/18 02:19:34;;;;;;;6.97;4.30;;;19.50;99.70;;;;;;5023565;28;20846;-64
2021/06/18 02:22:03;;;;;;;7.00;4.43;;;19.70;99.70;;;;;;5020045;28;20484;-64
2021/06/18 02:24:31;;;;;;;7.70;4.47;;;19.60;99.70;;;;;;5036575;28;20437;-64
2021/06/18 02:26:59;;;;;;;10.20;5.03;;;19.60;99.70;;;;;;5033073;28;20753;-64
2021/06/18 02:29:26;;;;;;;10.10;4.57;;;19.70;99.70;;;;;;5023488;28;20846;-64
2021/06/18 02:31:57;;;;;;;8.10;4.80;;;19.60;99.70;;;;;;5015563;28;20464;-64
2021/06/18 02:34:23;;;;;;;7.67;4.47;;;19.60;99.70;;;;;;5013717;28;20976;-63
2021/06/18 02:36:52;;;;;;;9.00;4.50;;;19.60;99.70;;;;;;5013190;28;20460;-62
2021/06/18 02:39:18;;;;;;;9.60;5.10;;;19.60;99.70;;;;;;5021558;28;20441;-62
2021/06/18 02:41:45;;;;;;;10.00;4.43;;;19.60;99.70;;;;;;5016330;28;20583;-62
2021/06/18 02:44:12;;;;;;;7.67;4.67;;;19.60;99.70;;;;;;5023211;28;20452;-61
2021/06/18 02:46:44;;;;;;;7.77;4.47;;;19.50;99.70;;;;;;5032497;28;20448;-62
2021/06/18 02:49:16;;;;;;;8.90;4.63;;;19.40;99.70;;;;;;5025216;28;20441;-63
2021/06/18 02:51:46;;;;;;;9.63;4.80;;;19.50;99.70;;;;;;5013726;28;20564;-64
2021/06/18 02:54:20;;;;;;;7.40;4.60;;;19.40;99.70;;;;;;5032485;28;20460;-63
2021/06/18 02:56:50;;;;;;;9.03;4.57;;;19.40;99.70;;;;;;5029774;28;20450;-62
2021/06/18 02:59:26;;;;;;;8.67;4.90;;;19.50;99.70;;;;;;5018612;28;20473;-62
2021/06/18 03:01:57;;;;;;;9.30;4.77;;;19.50;99.70;;;;;;5033626;28;20847;-64
2021/06/18 03:04:26;;;;;;;8.33;4.50;;;19.50;99.70;;;;;;5033945;28;21019;-64
2021/06/18 03:06:55;;;;;;;8.57;4.57;;;19.40;99.70;;;;;;5024955;28;20499;-64
2021/06/18 03:09:29;;;;;;;8.00;4.57;;;19.30;99.70;;;;;;5024036;28;20445;-62
2021/06/18 03:11:57;;;;;;;7.13;4.43;;;19.40;99.70;;;;;;5016725;28;20466;-64
2021/06/18 03:14:29;;;;;;;10.03;4.63;;;19.40;99.70;;;;;;5014843;28;20437;-63
2021/06/18 03:16:59;;;;;;;13.83;4.57;;;19.30;99.70;;;;;;5033622;28;20456;-63
2021/06/18 03:19:31;;;;;;;9.87;4.80;;;19.30;99.70;;;;;;5034112;28;20455;-63
2021/06/18 03:22:00;;;;;;;9.50;5.47;;;19.30;99.70;;;;;;5014893;28;20489;-62
2021/06/18 03:24:31;;;;;;;8.80;4.80;;;19.20;99.70;;;;;;5016003;28;21035;-63
2021/06/18 03:26:59;;;;;;;12.20;5.63;;;19.10;99.70;;;;;;5034315;28;20475;-63
2021/06/18 03:29:26;;;;;;;7.60;4.43;;;19.10;99.70;;;;;;5021078;28;20450;-62
2021/06/18 03:31:54;;;;;;;8.97;4.80;;;19.20;99.70;;;;;;5027766;28;20469;-64
2021/06/18 03:34:22;;;;;;;8.63;4.80;;;19.20;99.70;;;;;;5014658;28;20842;-63
2021/06/18 03:36:49;;;;;;;10.67;4.73;;;19.10;99.70;;;;;;5016186;28;20449;-64
2021/06/18 03:39:16;;;;;;;9.10;4.40;;;19.10;99.70;;;;;;5023971;28;20449;-64
2021/06/18 03:41:45;;;;;;;8.90;4.77;;;19.40;99.70;;;;;;5019065;28;20492;-63
2021/06/18 03:44:12;;;;;;;10.00;4.90;;;19.50;99.70;;;;;;5015575;28;20559;-63
2021/06/18 03:46:40;;;;;;;8.73;4.90;;;19.60;99.70;;;;;;5025964;28;20448;-64
2021/06/18 03:49:08;;;;;;;10.63;5.23;;;19.50;99.70;;;;;;5033933;28;20452;-64
2021/06/18 03:51:36;;;;;;;9.67;5.30;;;19.40;99.70;;;;;;5027942;28;20456;-63
2021/06/18 03:54:03;;;;;;;9.23;4.70;;;19.40;99.70;;;;;;5022811;28;20446;-60
2021/06/18 03:56:31;;;;;;;8.87;4.47;;;19.50;99.70;;;;;;5028793;28;20449;-63
2021/06/18 03:58:59;;;;;;;9.03;5.00;;;19.30;99.70;;;;;;5033013;28;20830;-64
2021/06/18 04:01:27;;;;;;;8.90;4.13;;;19.30;99.70;;;;;;5017445;28;20485;-64
2021/06/18 04:03:55;;;;;;;9.40;4.50;;;19.30;99.70;;;;;;5012918;28;20449;-63
2021/06/18 04:06:23;;;;;;;9.20;4.57;;;19.50;99.70;;;;;;5013292;28;20450;-63
2021/06/18 04:08:51;;;;;;;10.20;5.20;;;19.60;99.70;;;;;;5023875;28;20503;-63
2021/06/18 04:11:18;;;;;;;8.13;4.50;;;19.50;99.70;;;;;;5019417;28;20438;-63
2021/06/18 04:13:45;;;;;;;7.77;4.43;;;19.40;99.70;;;;;;5013022;28;20456;-64
2021/06/18 04:16:13;;;;;;;8.03;4.67;;;19.50;99.70;;;;;;5012889;28;20456;-63
2021/06/18 04:18:42;;;;;;;7.73;4.33;;;19.60;99.70;;;;;;5012318;28;20442;-63
2021/06/18 04:21:13;;;;;;;12.50;5.00;;;19.60;99.70;;;;;;5022500;28;20480;-63
2021/06/18 04:23:39;;;;;;;7.90;5.17;;;19.60;99.70;;;;;;5024524;28;20465;-64
2021/06/18 04:26:06;;;;;;;9.83;5.20;;;19.70;99.70;;;;;;5012304;28;20450;-63
2021/06/18 04:28:35;;;;;;;9.90;4.80;;;19.80;99.70;;;;;;5026309;28;20478;-63
2021/06/18 04:31:01;;;;;;;9.87;4.83;;;19.80;99.70;;;;;;5031942;28;20857;-64
2021/06/18 04:33:29;;;;;;;10.17;5.00;;;19.80;99.70;;;;;;5035392;28;20472;-64
2021/06/18 04:35:56;;;;;;;9.97;5.00;;;19.80;99.70;;;;;;5023787;28;20820;-64
2021/06/18 04:38:23;;;;;;;9.57;4.80;;;19.80;99.70;;;;;;5017632;28;20441;-63
2021/06/18 04:40:50;;;;;;;9.30;4.53;;;19.90;99.70;;;;;;5024939;28;21016;-64
2021/06/18 04:43:17;;;;;;;12.17;5.70;;;20.10;99.70;;;;;;5016039;28;20848;-62
2021/06/18 04:45:44;;;;;;;10.20;4.83;;;20.10;99.70;;;;;;5028716;28;20457;-64
2021/06/18 04:48:11;;;;;;;9.80;5.43;;;20.20;99.70;;;;;;5025224;28;20445;-63
2021/06/18 04:50:39;;;;;;;10.87;4.63;;;20.20;99.70;;;;;;5017416;28;20445;-65
2021/06/18 04:53:10;;;;;;;12.93;5.37;;;20.30;99.70;;;;;;5025385;28;20479;-63
2021/06/18 04:55:37;;;;;;;9.27;4.80;;;20.20;99.70;;;;;;5032247;28;21020;-63
2021/06/18 04:58:03;;;;;;;9.07;5.20;;;20.20;99.70;;;;;;5033491;28;20445;-63
2021/06/18 05:00:30;;;;;;;14.73;5.17;;;20.40;99.70;;;;;;5031423;28;20806;-64
2021/06/18 05:02:57;;;;;;;9.97;5.53;;;20.50;99.70;;;;;;5031641;28;20828;-63
2021/06/18 05:05:24;;;;;;;12.00;5.70;;;20.60;99.70;;;;;;5022659;28;20450;-64
2021/06/18 05:07:53;;;;;;;9.70;5.20;;;20.60;99.70;;;;;;5031017;28;20446;-63
2021/06/18 05:10:20;;;;;;;10.70;5.53;;;20.70;99.70;;;;;;5017316;28;20898;-64
2021/06/18 05:12:47;;;;;;;9.00;4.97;;;20.70;99.70;;;;;;5028152;28;20987;-66
2021/06/18 05:15:15;;;;;;;10.70;5.43;;;20.80;99.70;;;;;;5026483;28;20457;-63
2021/06/18 05:17:41;;;;;;;11.23;5.60;;;20.90;99.70;;;;;;5022142;28;20971;-63
2021/06/18 05:20:09;;;;;;;10.17;5.13;;;20.80;99.70;;;;;;5024877;28;20472;-63
2021/06/18 05:22:36;;;;;;;10.97;5.10;;;20.90;99.70;;;;;;5028804;28;20484;-64
2021/06/18 05:25:05;;;;;;;11.07;5.47;;;21.20;99.70;;;;;;5031787;28;20445;-64
2021/06/18 05:27:32;;;;;;;9.50;4.90;;;21.30;99.70;;;;;;5022982;28;20456;-64
2021/06/18 05:29:58;;;;;;;8.90;4.90;;;21.40;99.70;;;;;;5016004;28;20504;-64
2021/06/18 05:32:25;;;;;;;8.17;4.90;;;21.50;99.70;;;;;;5028565;28;20467;-64
2021/06/18 05:34:52;;;;;;;10.30;5.70;;;21.60;99.70;;;;;;5031582;28;20468;-65
2021/06/18 05:37:19;;;;;;;10.33;5.00;;;21.60;99.70;;;;;;5017825;28;20454;-64
2021/06/18 05:39:45;;;;;;;8.67;4.80;;;21.80;99.70;;;;;;5021802;28;20453;-64
2021/06/18 05:42:13;;;;;;;7.40;4.50;;;21.90;99.70;;;;;;5036209;28;20489;-63
2021/06/18 05:44:40;;;;;;;9.50;4.80;;;21.90;99.70;;;;;;5037604;28;20874;-64
2021/06/18 05:47:07;;;;;;;8.83;5.40;;;22.10;99.70;;;;;;5036445;28;20448;-64
2021/06/18 05:49:33;;;;;;;11.90;5.20;;;22.20;99.70;;;;;;5037372;28;20451;-64
2021/06/18 05:52:00;;;;;;;9.83;5.53;;;22.20;99.70;;;;;;5034408;28;20847;-63
2021/06/18 05:54:27;;;;;;;9.87;5.63;;;22.10;99.70;;;;;;5033069;28;20761;-63
2021/06/18 05:56:55;;;;;;;8.87;5.00;;;22.20;99.70;;;;;;5073214;22;20502;-66
2021/06/18 05:59:23;;;;;;;8.33;4.90;;;22.30;99.70;;;;;;5071191;28;20449;-67
2021/06/18 06:01:49;;;;;;;8.90;5.13;;;22.40;99.70;;;;;;5071255;28;20478;-66
2021/06/18 06:04:16;;;;;;;10.27;4.97;;;22.60;99.70;;;;;;5070900;28;20450;-66
2021/06/18 06:06:43;;;;;;;8.20;4.93;;;22.60;99.70;;;;;;5071078;28;20489;-67
2021/06/18 06:09:09;;;;;;;9.87;5.00;;;22.50;99.70;;;;;;5071031;28;20457;-67
2021/06/18 06:11:37;;;;;;;9.93;5.30;;;22.50;99.70;;;;;;5071058;28;20442;-66
2021/06/18 06:14:05;;;;;;;10.10;4.37;;;22.40;99.70;;;;;;5070705;28;20450;-66
2021/06/18 06:16:35;;;;;;;8.33;5.23;;;22.60;99.70;;;;;;5070275;28;20470;-67
2021/06/18 06:19:02;;;;;;;11.63;5.23;;;22.80;99.70;;;;;;5070814;28;20452;-67
2021/06/18 06:21:29;;;;;;;10.93;5.80;;;23.00;99.70;;;;;;5070837;28;20482;-67
2021/06/18 06:23:56;;;;;;;9.90;4.80;;;23.20;99.70;;;;;;5070717;28;20941;-67
2021/06/18 06:26:23;;;;;;;10.20;5.13;;;23.40;99.70;;;;;;5070571;28;20465;-67
2021/06/18 06:28:50;;;;;;;9.70;5.10;;;24.10;99.70;;;;;;5070482;28;20450;-67
2021/06/18 06:31:16;;;;;;;7.47;4.70;;;24.80;99.70;;;;;;5070527;28;20549;-67
2021/06/18 06:33:45;;;;;;;9.03;4.90;;;25.40;99.40;;;;;;5070625;28;20449;-67
2021/06/18 06:36:11;;;;;;;7.40;4.80;;;25.80;98.50;;;;;;5070252;28;20579;-67
2021/06/18 06:38:38;;;;;;;8.32;4.50;;;26.20;98.00;;;;;;5070626;28;20694;-67
2021/06/18 06:41:05;;;;;;;7.85;4.95;;;26.70;96.10;;;;;;5070638;28;20204;-67
2021/06/18 06:43:32;;;;;;;8.75;5.18;;;26.90;95.10;;;;;;5070460;28;20207;-67
2021/06/18 06:45:59;;;;;;;6.50;4.60;;;27.00;96.30;;;;;;5070208;28;20243;-67
2021/06/18 06:48:26;;;;;;;10.10;5.20;;;27.40;94.50;;;;;;5069959;28;20204;-67
2021/06/18 06:50:54;;;;;;;6.72;4.15;;;27.80;93.70;;;;;;5070608;28;20199;-68
2021/06/18 06:53:21;;;;;;;9.57;5.30;;;27.90;92.50;;;;;;5069411;28;20196;-67
2021/06/18 06:55:47;;;;;;;6.18;4.18;;;28.00;91.00;;;;;;5069794;28;20231;-67
2021/06/18 06:58:14;;;;;;;5.97;4.75;;;28.40;90.70;;;;;;5070304;28;20699;-68
2021/06/18 07:00:41;;;;;;;7.28;4.95;;;29.00;90.50;;;;;;5070367;28;20199;-68
2021/06/18 07:03:07;;;;;;;6.47;4.40;;;28.90;88.50;;;;;;5069960;28;20731;-67
2021/06/18 07:05:34;;;;;;;6.95;4.47;;;28.50;89.10;;;;;;5069815;28;20583;-67
2021/06/18 07:08:14;;;;;;;5.82;4.30;;;28.40;89.60;;;;;;5070145;28;20207;-67
2021/06/18 07:10:41;;;;;;;6.25;4.55;;;27.90;90.50;;;;;;5070272;28;20667;-67
2021/06/18 07:13:07;;;;;;;7.60;4.43;;;28.20;89.50;;;;;;5069870;28;20226;-68
2021/06/18 07:15:34;;;;;;;6.80;4.32;;;28.50;88.60;;;;;;5069287;28;20218;-67
2021/06/18 07:18:01;;;;;;;7.35;4.70;;;28.50;87.80;;;;;;5070285;28;20204;-67
2021/06/18 07:20:28;;;;;;;8.02;4.68;;;28.60;88.40;;;;;;5069887;28;20207;-67
2021/06/18 07:22:54;;;;;;;7.00;4.78;;;28.30;89.10;;;;;;5069961;28;20658;-67
2021/06/18 07:25:22;;;;;;;6.50;4.33;;;27.60;90.40;;;;;;5069789;28;20630;-67
2021/06/18 07:27:49;;;;;;;7.03;4.50;;;27.60;90.50;;;;;;5069912;28;20208;-67
2021/06/18 07:30:17;;;;;;;6.37;4.47;;;27.90;90.50;;;;;;5070071;28;20204;-67
2021/06/18 07:32:43;;;;;;;8.60;4.50;;;27.50;89.40;;;;;;5070075;28;20246;-67
2021/06/18 07:35:11;;;;;;;8.30;4.80;;;27.20;91.00;;;;;;5069587;28;20203;-67
2021/06/18 07:37:38;;;;;;;8.63;4.87;;;27.30;93.00;;;;;;5069822;28;20223;-67
2021/06/18 07:40:06;;;;;;;8.33;4.63;;;27.20;92.40;;;;;;5069840;28;20450;-67
2021/06/18 07:42:34;;;;;;;7.03;4.10;;;27.10;91.90;;;;;;5069753;28;20530;-67
2021/06/18 07:45:01;;;;;;;8.20;4.97;;;27.10;92.20;;;;;;5069362;28;20516;-67
2021/06/18 07:47:27;;;;;;;9.30;4.53;;;27.00;92.60;;;;;;5069275;28;20866;-67
2021/06/18 07:49:54;;;;;;;7.83;4.20;;;27.00;94.20;;;;;;5069765;28;20469;-67
2021/06/18 07:52:21;;;;;;;7.27;4.03;;;26.90;92.20;;;;;;5069691;28;20504;-67
2021/06/18 07:54:51;;;;;;;7.60;4.37;;;26.90;92.80;;;;;;5069558;28;20442;-68
2021/06/18 07:57:18;;;;;;;10.53;4.37;;;26.80;91.60;;;;;;5069500;28;20474;-66
2021/06/18 07:59:46;;;;;;;6.23;3.83;;;27.00;94.50;;;;;;5069699;28;20443;-67
2021/06/18 08:02:13;;;;;;;7.70;3.67;;;27.00;92.90;;;;;;5069657;28;20846;-67
2021/06/18 08:04:39;;;;;;;8.03;4.07;;;26.90;93.60;;;;;;5071570;28;20498;-67
2021/06/18 08:07:06;;;;;;;7.77;4.50;;;27.00;93.50;;;;;;5073773;28;20496;-67
2021/06/18 08:09:32;;;;;;;7.20;3.90;;;26.90;91.10;;;;;;5073522;28;20442;-67
2021/06/18 08:11:59;;;;;;;6.63;3.60;;;27.00;91.10;;;;;;5073536;28;20499;-67
2021/06/18 08:14:28;;;;;;;7.87;4.23;;;27.10;89.70;;;;;;5073177;28;20957;-67
2021/06/18 08:16:56;;;;;;;7.73;4.30;;;27.00;90.50;;;;;;5073284;28;20462;-67
2021/06/18 08:19:23;;;;;;;7.40;4.10;;;27.00;92.40;;;;;;5073829;28;20450;-66
2021/06/18 08:21:49;;;;;;;5.93;3.87;;;27.20;90.60;;;;;;5073290;28;20457;-67
2021/06/18 08:24:16;;;;;;;6.40;4.10;;;27.00;90.10;;;;;;5072986;28;20448;-67
2021/06/18 08:26:43;;;;;;;10.60;4.10;;;27.00;89.10;;;;;;5073456;28;20466;-67
2021/06/18 08:29:09;;;;;;;10.23;4.37;;;27.00;91.40;;;;;;5073333;28;20450;-67
2021/06/18 08:31:36;;;;;;;10.70;4.53;;;27.00;93.00;;;;;;5073669;28;20831;-67
2021/06/18 08:34:04;;;;;;;7.73;4.20;;;26.90;91.80;;;;;;5073165;28;20499;-65
2021/06/18 08:36:31;;;;;;;8.10;4.00;;;27.00;91.90;;;;;;5072960;28;20469;-67
2021/06/18 08:38:57;;;;;;;8.07;4.30;;;27.10;91.90;;;;;;5073135;28;20457;-67
2021/06/18 08:41:24;;;;;;;9.20;4.40;;;27.20;92.20;;;;;;5073140;28;20445;-67
2021/06/18 08:43:51;;;;;;;8.00;4.63;;;27.20;90.30;;;;;;5073065;28;20845;-67
2021/06/18 08:46:18;;;;;;;9.07;4.67;;;27.40;92.30;;;;;;5072389;28;20980;-67
2021/06/18 08:48:44;;;;;;;9.40;4.73;;;27.20;90.50;;;;;;5073016;28;20442;-67
2021/06/18 08:51:13;;;;;;;8.30;4.10;;;27.30;92.30;;;;;;5072910;28;20452;-67
2021/06/18 08:53:42;;;;;;;6.70;4.00;;;27.60;90.70;;;;;;5072885;28;20442;-67
2021/06/18 08:56:10;;;;;;;7.50;4.00;;;27.60;90.00;;;;;;5072320;28;20523;-67
2021/06/18 08:58:37;;;;;;;9.43;4.57;;;27.40;89.20;;;;;;5072874;28;20454;-67
2021/06/18 09:01:05;;;;;;;8.50;4.10;;;27.40;90.00;;;;;;5072867;28;20446;-67
2021/06/18 09:03:41;;;;;;;9.00;4.57;;;27.40;90.60;;;;;;5072724;28;20486;-67
2021/06/18 09:06:29;;;;;;;9.63;4.70;;;27.30;91.80;;;;;;5072411;28;20509;-67
2021/06/18 09:09:15;;;;;;;8.50;4.20;;;27.40;91.50;;;;;;5072497;28;20446;-67
2021/06/18 09:11:45;;;;;;;7.87;4.90;;;27.60;89.60;;;;;;5072371;28;20957;-67
2021/06/18 09:14:20;;;;;;;8.33;4.83;;;27.50;88.90;;;;;;5072232;28;20447;-67
2021/06/18 09:17:09;;;;;;;12.23;4.87;;;27.50;90.60;;;;;;5071006;28;20531;-67
2021/06/18 09:19:37;;;;;;;8.20;4.90;;;27.60;90.50;;;;;;5072621;28;20434;-66
2021/06/18 09:22:07;;;;;;;7.60;4.77;;;27.50;91.10;;;;;;5072131;28;20442;-67
2021/06/18 09:24:37;;;;;;;8.00;4.50;;;27.80;88.60;;;;;;5071792;28;20446;-66
2021/06/18 09:27:05;;;;;;;8.10;4.50;;;27.80;89.60;;;;;;5071823;28;20454;-67
2021/06/18 09:29:31;;;;;;;6.17;3.87;;;28.10;88.40;;;;;;5072056;28;20438;-66
2021/06/18 09:32:00;;;;;;;9.97;4.93;;;28.10;90.00;;;;;;5071896;28;20453;-67
2021/06/18 09:34:47;;;;;;;8.80;4.77;;;28.50;90.00;;;;;;5071710;28;20438;-67
2021/06/18 09:37:25;;;;;;;7.87;4.83;;;29.00;88.60;;;;;;5071902;28;20220;-67
2021/06/18 09:39:58;;;;;;;7.07;4.30;;;29.50;85.80;;;;;;5071993;28;20199;-67
2021/06/18 09:42:24;;;;;;;7.40;4.65;;;29.80;85.70;;;;;;5071699;28;20220;-67
2021/06/18 09:45:07;;;;;;;8.27;4.88;;;30.20;84.10;;;;;;5071538;28;20702;-67
2021/06/18 09:47:35;;;;;;;7.10;4.53;;;30.60;82.60;;;;;;5071252;28;20594;-67
2021/06/18 09:50:04;;;;;;;6.82;4.40;;;30.90;80.40;;;;;;5071625;28;20211;-67
2021/06/18 09:52:33;;;;;;;6.55;4.55;;;30.60;82.60;;;;;;5072034;28;20196;-67
2021/06/18 09:55:00;;;;;;;7.28;4.50;;;31.10;81.60;;;;;;5071281;28;20647;-67
2021/06/18 09:57:37;;;;;;;6.30;4.70;;;31.70;79.50;;;;;;5071322;28;20285;-67
2021/06/18 10:00:06;;;;;;;6.47;4.65;;;31.90;80.40;;;;;;5071602;28;20253;-67
2021/06/18 10:02:41;;;;;;;6.80;5.00;;;32.30;80.50;;;;;;5071444;28;20708;-67
2021/06/18 10:05:11;;;;;;;6.00;4.60;;;32.40;81.50;;;;;;5071245;28;20287;-67
2021/06/18 10:07:40;;;;;;;6.03;4.53;;;32.80;77.60;;;;;;5071219;28;20470;-67
2021/06/18 10:10:09;;;;;;;6.28;4.38;;;32.80;76.70;;;;;;5071220;28;20664;-67
2021/06/18 10:12:36;;;;;;;7.68;4.78;;;32.80;77.80;;;;;;5069422;28;20371;-67
2021/06/18 10:15:08;;;;;;;6.82;4.75;;;32.60;78.30;;;;;;5068598;28;20204;-67
2021/06/18 10:17:37;;;;;;;7.82;5.55;;;32.40;77.90;;;;;;5070120;28;20251;-66
2021/06/18 10:20:07;;;;;;;6.72;4.55;;;32.10;80.40;;;;;;5068340;28;20231;-66
2021/06/18 10:22:37;;;;;;;8.45;4.55;;;31.90;78.90;;;;;;5069726;28;20230;-67
2021/06/18 10:25:10;;;;;;;7.28;4.63;;;31.30;78.90;;;;;;5067281;28;20604;-67
2021/06/18 10:27:41;;;;;;;7.85;5.25;;;31.20;79.50;;;;;;5067493;28;20292;-67
2021/06/18 10:30:32;;;;;;;6.35;4.20;;;31.20;79.80;;;;;;5068590;28;20212;-66
2021/06/18 10:32:59;;;;;;;7.28;4.15;;;31.10;80.90;;;;;;5069869;28;20200;-67
2021/06/18 10:35:49;;;;;;;8.55;4.72;;;30.90;81.20;;;;;;5070249;28;20283;-66
2021/06/18 10:38:29;;;;;;;7.77;4.80;;;30.70;82.40;;;;;;5070684;28;20290;-67
2021/06/18 10:41:00;;;;;;;7.27;4.73;;;30.80;79.80;;;;;;5070349;28;20204;-66
2021/06/18 10:43:38;;;;;;;8.43;4.43;;;30.60;79.60;;;;;;5070542;28;20614;-66
2021/06/18 10:46:17;;;;;;;7.93;4.73;;;30.40;79.40;;;;;;5065376;28;20226;-66
2021/06/18 10:49:13;;;;;;;7.63;4.47;;;30.40;82.30;;;;;;5069274;28;20203;-67
2021/06/18 10:51:43;;;;;;;7.90;4.37;;;30.50;82.30;;;;;;4988531;28;20207;-66
2021/06/18 10:54:15;;;;;;;6.73;3.93;;;30.30;77.50;;;;;;5052101;28;20200;-66
2021/06/18 10:57:03;;;;;;;7.23;4.50;;;30.20;79.10;;;;;;5069914;28;20232;-67
2021/06/18 10:59:42;;;;;;;6.30;4.07;;;30.20;78.70;;;;;;5070143;28;20207;-67
2021/06/18 11:02:34;;;;;;;7.67;4.30;;;30.40;77.90;;;;;;5070288;28;20207;-66
2021/06/18 11:05:02;;;;;;;8.17;4.10;;;30.40;78.10;;;;;;5069931;28;20306;-67
2021/06/18 11:07:30;;;;;;;6.70;3.90;;;30.40;77.10;;;;;;5069785;28;20224;-67
2021/06/18 11:09:57;;;;;;;6.60;4.40;;;30.20;75.40;;;;;;5069705;28;20208;-67
2021/06/18 11:12:43;;;;;;;6.33;4.17;;;30.20;75.90;;;;;;5069740;28;20196;-67
2021/06/18 11:15:42;;;;;;;6.20;4.27;;;30.10;77.20;;;;;;5069261;28;20203;-66
2021/06/18 11:18:13;;;;;;;6.70;4.00;;;30.10;75.90;;;;;;5061157;28;20465;-67
2021/06/18 11:21:00;;;;;;;6.77;4.30;;;29.90;74.80;;;;;;5069930;28;20450;-66
2021/06/18 11:23:34;;;;;;;5.60;3.20;;;30.10;74.20;;;;;;5069969;28;20226;-67
2021/06/18 11:26:12;;;;;;;6.47;3.13;;;30.00;73.60;;;;;;5069801;28;20353;-67
2021/06/18 11:28:47;;;;;;;5.20;3.07;;;30.10;74.10;;;;;;5069831;28;20200;-67
2021/06/18 11:31:21;;;;;;;4.77;3.00;;;30.30;71.40;;;;;;5069828;28;20210;-66
2021/06/18 11:33:51;;;;;;;6.17;3.43;;;30.20;74.90;;;;;;5069746;28;20743;-66
2021/06/18 11:36:49;;;;;;;4.83;3.40;;;30.10;71.70;;;;;;5069341;28;20216;-66
2021/06/18 11:39:23;;;;;;;5.50;3.23;;;30.10;72.00;;;;;;5069073;28;20246;-67
2021/06/18 11:42:03;;;;;;;5.90;3.20;;;30.20;71.20;;;;;;5069272;28;20692;-67
2021/06/18 11:44:32;;;;;;;5.13;3.33;;;30.30;70.50;;;;;;5069211;28;20470;-67
2021/06/18 11:46:59;;;;;;;4.50;3.40;;;30.40;70.30;;;;;;5069140;28;20469;-67
2021/06/18 11:49:29;;;;;;;4.80;3.20;;;30.40;68.90;;;;;;5069539;28;20200;-67
2021/06/18 11:52:03;;;;;;;5.60;3.80;;;30.20;70.00;;;;;;5069451;28;20586;-66
2021/06/18 11:54:32;;;;;;;5.20;3.40;;;30.00;70.60;;;;;;5069159;28;20207;-67
2021/06/18 11:57:17;;;;;;;4.80;3.50;;;30.20;67.20;;;;;;5070596;28;20473;-66
2021/06/18 11:59:52;;;;;;;4.73;2.93;;;30.20;68.00;;;;;;5068240;28;20200;-66
2021/06/18 12:02:21;;;;;;;4.80;3.00;;;30.10;68.30;;;;;;5069429;28;20481;-66
2021/06/18 12:05:10;;;;;;;6.30;3.57;;;30.00;69.20;;;;;;5069005;28;20222;-66
2021/06/18 12:07:37;;;;;;;3.80;2.90;;;30.10;69.10;;;;;;5069262;28;20216;-66
2021/06/18 12:10:06;;;;;;;4.73;3.17;;;30.20;63.00;;;;;;5069110;28;20867;-67
2021/06/18 12:12:44;;;;;;;5.50;3.03;;;30.40;64.80;;;;;;5056343;28;20188;-67
2021/06/18 12:15:23;;;;;;;4.97;3.27;;;30.40;67.30;;;;;;5054663;28;20220;-67
2021/06/18 12:17:52;;;;;;;4.30;3.10;;;30.30;67.60;;;;;;5067861;28;20208;-67
2021/06/18 12:20:27;;;;;;;4.77;2.87;;;30.20;66.60;;;;;;5068301;28;20200;-66
2021/06/18 12:22:54;;;;;;;3.70;2.10;;;30.40;64.60;;;;;;5067379;28;20268;-66
2021/06/18 12:25:21;;;;;;;4.40;2.73;;;30.30;63.10;;;;;;5068681;28;20204;-67
2021/06/18 12:27:48;;;;;;;5.00;3.13;;;30.20;65.10;;;;;;5068994;28;20582;-66
2021/06/18 12:30:16;;;;;;;3.57;2.80;;;30.50;65.10;;;;;;5069054;28;20196;-67
2021/06/18 12:32:45;;;;;;;4.17;2.70;;;30.60;63.50;;;;;;5068341;28;20200;-66
2021/06/18 12:35:15;;;;;;;3.50;2.30;;;30.80;58.40;;;;;;5068825;28;20407;-66
2021/06/18 12:37:48;;;;;;;4.13;2.73;;;30.70;59.00;;;;;;5052528;28;20579;-66
2021/06/18 12:40:19;;;;;;;4.03;2.80;;;30.80;60.50;;;;;;5048686;28;20208;-67
2021/06/18 12:42:48;;;;;;;3.10;2.60;;;30.60;61.90;;;;;;5064952;28;20207;-67
2021/06/18 12:45:17;;;;;;;3.83;2.87;;;30.50;64.20;;;;;;5068475;28;20259;-66
2021/06/18 12:47:48;;;;;;;4.00;2.87;;;30.60;62.50;;;;;;5049908;28;20220;-66
2021/06/18 12:50:26;;;;;;;3.90;2.77;;;30.50;63.00;;;;;;5048911;28;20223;-66
2021/06/18 12:52:54;;;;;;;4.27;2.97;;;30.50;62.50;;;;;;5071205;28;20196;-67
2021/06/18 12:55:28;;;;;;;4.27;2.70;;;30.50;64.40;;;;;;5071964;28;20282;-67
2021/06/18 12:58:11;;;;;;;4.07;3.00;;;30.50;64.40;;;;;;5071568;28;20266;-67